Etusivu
METAR-TAF:

METAR-TAF

Lentoasemat :

Omak Airport

Omak, Washington, Yhdysvallat

Leveyspiiri: 48-27-51N, Pituuspiiri: 119-31-05W, korkeus merenpinnasta: 397 m

Tämänhetkinen sää

Tämä raportti tehtiin 33 minuuttia sitten, kello 00.53 UTC
Tuuli 5 kn etelästä
Lämpötila -4°C
Kosteus 68%
Ilmanpaine 1014 hPa
Näkyvyys: 16.1 km
Hajonneita pilviä 11000 ft:n korkeudessa

METAR: KOMK 200053Z AUTO 17005KT 10SM BKN110 M04/M09 A2995 RMK AO2 SLP163 T10441094

Aika: 17:26 (01:26 UTC)


TAF: puuttuu

Säähavainnot ja -ennusteet yli 4000 lentoasemalta (METAR- ja TAF-raportit).

Käytössä olevat sääasemat on merkitty karttaan keltaisilla ja punaisilla pisteillä.

Aseta hiiri pisteen päälle nähdäksesi sääaseman nimen.

Klikkaa sitten nähdäksesi säähavainnot ja -ennusteet.

Kartan vaihtaminen: klikkaa mustalla rastilla varustettuja vihreitä pisteitä, niin voit zoomata sisään; viivalla varustettua vihreää pistettä, niin voit zoomata ulos tai vihreitä nuolia, niin pääset viereisille kartoille.


METAR-TAF: